sensor_id;sensor_type;location;lat;lon;timestamp;P1;durP1;ratioP1;P2;durP2;ratioP2
16137;SDS011;8174;43.550;5.206;2023-02-15T00:01:10;195.87;;;92.87;;
16137;SDS011;8174;43.550;5.206;2023-02-15T00:03:38;177.13;;;89.83;;
16137;SDS011;8174;43.550;5.206;2023-02-15T00:06:05;161.90;;;82.70;;
16137;SDS011;8174;43.550;5.206;2023-02-15T00:08:33;170.00;;;86.00;;
16137;SDS011;8174;43.550;5.206;2023-02-15T00:11:03;156.73;;;80.90;;
16137;SDS011;8174;43.550;5.206;2023-02-15T00:13:31;155.70;;;82.93;;
16137;SDS011;8174;43.550;5.206;2023-02-15T00:16:01;144.20;;;80.07;;
16137;SDS011;8174;43.550;5.206;2023-02-15T00:18:30;166.50;;;81.30;;
16137;SDS011;8174;43.550;5.206;2023-02-15T00:20:58;146.13;;;76.97;;
16137;SDS011;8174;43.550;5.206;2023-02-15T00:23:25;146.17;;;79.13;;
16137;SDS011;8174;43.550;5.206;2023-02-15T00:26:02;145.40;;;73.87;;
16137;SDS011;8174;43.550;5.206;2023-02-15T00:28:30;136.70;;;70.73;;
16137;SDS011;8174;43.550;5.206;2023-02-15T00:31:02;134.60;;;67.83;;
16137;SDS011;8174;43.550;5.206;2023-02-15T00:33:30;135.03;;;70.80;;
16137;SDS011;8174;43.550;5.206;2023-02-15T00:35:58;135.93;;;70.07;;
16137;SDS011;8174;43.550;5.206;2023-02-15T00:38:26;136.77;;;68.10;;
16137;SDS011;8174;43.550;5.206;2023-02-15T00:40:53;124.73;;;67.97;;
16137;SDS011;8174;43.550;5.206;2023-02-15T00:43:21;130.90;;;68.93;;
16137;SDS011;8174;43.550;5.206;2023-02-15T00:45:48;131.87;;;68.33;;
16137;SDS011;8174;43.550;5.206;2023-02-15T00:48:16;123.00;;;63.77;;
16137;SDS011;8174;43.550;5.206;2023-02-15T00:50:45;119.20;;;64.80;;
16137;SDS011;8174;43.550;5.206;2023-02-15T00:53:13;125.43;;;68.90;;
16137;SDS011;8174;43.550;5.206;2023-02-15T00:55:40;117.13;;;67.00;;
16137;SDS011;8174;43.550;5.206;2023-02-15T00:58:08;121.13;;;68.53;;
16137;SDS011;8174;43.550;5.206;2023-02-15T01:00:36;129.43;;;67.90;;
16137;SDS011;8174;43.550;5.206;2023-02-15T01:03:04;129.83;;;67.53;;
16137;SDS011;8174;43.550;5.206;2023-02-15T01:05:31;124.60;;;67.90;;
16137;SDS011;8174;43.550;5.206;2023-02-15T01:08:00;118.50;;;67.23;;
16137;SDS011;8174;43.550;5.206;2023-02-15T01:10:27;120.97;;;69.07;;
16137;SDS011;8174;43.550;5.206;2023-02-15T01:12:55;121.57;;;68.10;;
16137;SDS011;8174;43.550;5.206;2023-02-15T01:15:23;113.10;;;66.03;;
16137;SDS011;8174;43.550;5.206;2023-02-15T01:17:51;122.27;;;67.40;;
16137;SDS011;8174;43.550;5.206;2023-02-15T01:20:19;125.20;;;69.10;;
16137;SDS011;8174;43.550;5.206;2023-02-15T01:22:47;120.77;;;67.90;;
16137;SDS011;8174;43.550;5.206;2023-02-15T01:25:16;122.83;;;68.47;;
16137;SDS011;8174;43.550;5.206;2023-02-15T01:27:43;124.87;;;69.83;;
16137;SDS011;8174;43.550;5.206;2023-02-15T01:30:11;129.97;;;70.97;;
16137;SDS011;8174;43.550;5.206;2023-02-15T01:32:39;120.53;;;68.83;;
16137;SDS011;8174;43.550;5.206;2023-02-15T01:35:07;125.20;;;69.80;;
16137;SDS011;8174;43.550;5.206;2023-02-15T01:37:35;124.90;;;67.53;;
16137;SDS011;8174;43.550;5.206;2023-02-15T01:40:02;121.53;;;67.83;;
16137;SDS011;8174;43.550;5.206;2023-02-15T01:42:31;128.27;;;70.13;;
16137;SDS011;8174;43.550;5.206;2023-02-15T01:44:59;116.90;;;67.53;;
16137;SDS011;8174;43.550;5.206;2023-02-15T01:47:28;119.30;;;68.50;;
16137;SDS011;8174;43.550;5.206;2023-02-15T01:49:58;119.53;;;64.70;;
16137;SDS011;8174;43.550;5.206;2023-02-15T01:52:27;113.13;;;61.40;;
16137;SDS011;8174;43.550;5.206;2023-02-15T01:54:55;108.90;;;62.97;;
16137;SDS011;8174;43.550;5.206;2023-02-15T01:57:23;113.23;;;63.10;;
16137;SDS011;8174;43.550;5.206;2023-02-15T01:59:54;114.03;;;64.60;;
16137;SDS011;8174;43.550;5.206;2023-02-15T02:02:22;108.93;;;63.90;;
16137;SDS011;8174;43.550;5.206;2023-02-15T02:04:51;115.77;;;64.47;;
16137;SDS011;8174;43.550;5.206;2023-02-15T02:07:21;114.80;;;65.83;;
16137;SDS011;8174;43.550;5.206;2023-02-15T02:09:48;112.83;;;64.07;;
16137;SDS011;8174;43.550;5.206;2023-02-15T02:12:16;113.47;;;66.80;;
16137;SDS011;8174;43.550;5.206;2023-02-15T02:14:44;112.67;;;65.17;;
16137;SDS011;8174;43.550;5.206;2023-02-15T02:17:15;113.40;;;63.73;;
16137;SDS011;8174;43.550;5.206;2023-02-15T02:19:46;112.97;;;63.80;;
16137;SDS011;8174;43.550;5.206;2023-02-15T02:25:09;110.33;;;62.90;;
16137;SDS011;8174;43.550;5.206;2023-02-15T02:27:39;112.47;;;62.43;;
16137;SDS011;8174;43.550;5.206;2023-02-15T02:32:58;111.37;;;62.77;;
16137;SDS011;8174;43.550;5.206;2023-02-15T02:35:30;109.70;;;61.10;;
16137;SDS011;8174;43.550;5.206;2023-02-15T02:38:03;108.20;;;60.40;;
16137;SDS011;8174;43.550;5.206;2023-02-15T02:40:36;106.27;;;60.47;;
16137;SDS011;8174;43.550;5.206;2023-02-15T02:43:08;111.00;;;60.93;;
16137;SDS011;8174;43.550;5.206;2023-02-15T02:45:39;113.70;;;61.23;;
16137;SDS011;8174;43.550;5.206;2023-02-15T02:48:09;115.77;;;61.73;;
16137;SDS011;8174;43.550;5.206;2023-02-15T02:50:39;116.00;;;63.17;;
16137;SDS011;8174;43.550;5.206;2023-02-15T02:53:08;114.87;;;62.23;;
16137;SDS011;8174;43.550;5.206;2023-02-15T02:55:37;119.27;;;62.23;;
16137;SDS011;8174;43.550;5.206;2023-02-15T02:58:09;109.87;;;62.07;;
16137;SDS011;8174;43.550;5.206;2023-02-15T03:00:38;118.33;;;62.23;;
16137;SDS011;8174;43.550;5.206;2023-02-15T03:03:09;114.20;;;62.87;;
16137;SDS011;8174;43.550;5.206;2023-02-15T03:05:41;115.63;;;60.67;;
16137;SDS011;8174;43.550;5.206;2023-02-15T03:08:08;119.40;;;61.93;;
16137;SDS011;8174;43.550;5.206;2023-02-15T03:10:36;118.93;;;63.50;;
16137;SDS011;8174;43.550;5.206;2023-02-15T03:13:05;120.93;;;64.50;;
16137;SDS011;8174;43.550;5.206;2023-02-15T03:15:33;120.07;;;63.97;;
16137;SDS011;8174;43.550;5.206;2023-02-15T03:18:17;117.23;;;63.40;;
16137;SDS011;8174;43.550;5.206;2023-02-15T03:20:44;118.97;;;63.30;;
16137;SDS011;8174;43.550;5.206;2023-02-15T03:23:12;119.73;;;63.17;;
16137;SDS011;8174;43.550;5.206;2023-02-15T03:25:41;118.07;;;63.77;;
16137;SDS011;8174;43.550;5.206;2023-02-15T03:28:10;115.50;;;61.47;;
16137;SDS011;8174;43.550;5.206;2023-02-15T03:30:39;126.57;;;64.77;;
16137;SDS011;8174;43.550;5.206;2023-02-15T03:33:06;122.87;;;64.03;;
16137;SDS011;8174;43.550;5.206;2023-02-15T03:35:37;130.43;;;64.93;;
16137;SDS011;8174;43.550;5.206;2023-02-15T03:38:06;129.10;;;66.87;;
16137;SDS011;8174;43.550;5.206;2023-02-15T03:40:34;135.83;;;66.07;;
16137;SDS011;8174;43.550;5.206;2023-02-15T03:43:21;136.87;;;65.70;;
16137;SDS011;8174;43.550;5.206;2023-02-15T03:45:51;146.93;;;70.67;;
16137;SDS011;8174;43.550;5.206;2023-02-15T03:48:23;148.93;;;73.33;;
16137;SDS011;8174;43.550;5.206;2023-02-15T03:50:53;151.20;;;72.67;;
16137;SDS011;8174;43.550;5.206;2023-02-15T03:53:40;149.40;;;72.37;;
16137;SDS011;8174;43.550;5.206;2023-02-15T03:56:08;158.37;;;75.53;;
16137;SDS011;8174;43.550;5.206;2023-02-15T03:58:35;152.73;;;74.47;;
16137;SDS011;8174;43.550;5.206;2023-02-15T04:01:22;150.27;;;66.00;;
16137;SDS011;8174;43.550;5.206;2023-02-15T04:04:15;155.03;;;71.00;;
16137;SDS011;8174;43.550;5.206;2023-02-15T04:06:46;146.17;;;70.57;;
16137;SDS011;8174;43.550;5.206;2023-02-15T04:09:13;148.87;;;71.73;;
16137;SDS011;8174;43.550;5.206;2023-02-15T04:11:58;139.23;;;67.37;;
16137;SDS011;8174;43.550;5.206;2023-02-15T04:14:28;153.30;;;68.67;;
16137;SDS011;8174;43.550;5.206;2023-02-15T04:17:13;141.03;;;67.60;;
16137;SDS011;8174;43.550;5.206;2023-02-15T04:19:41;152.37;;;68.57;;
16137;SDS011;8174;43.550;5.206;2023-02-15T04:22:27;150.27;;;67.40;;
16137;SDS011;8174;43.550;5.206;2023-02-15T04:25:12;155.83;;;68.43;;
16137;SDS011;8174;43.550;5.206;2023-02-15T04:27:40;144.13;;;67.37;;
16137;SDS011;8174;43.550;5.206;2023-02-15T04:30:08;153.20;;;68.77;;
16137;SDS011;8174;43.550;5.206;2023-02-15T04:32:35;154.30;;;71.60;;
16137;SDS011;8174;43.550;5.206;2023-02-15T04:35:04;152.37;;;70.10;;
16137;SDS011;8174;43.550;5.206;2023-02-15T04:37:33;157.20;;;70.70;;
16137;SDS011;8174;43.550;5.206;2023-02-15T04:40:01;153.80;;;71.60;;
16137;SDS011;8174;43.550;5.206;2023-02-15T04:42:28;159.47;;;73.47;;
16137;SDS011;8174;43.550;5.206;2023-02-15T04:44:55;149.30;;;68.83;;
16137;SDS011;8174;43.550;5.206;2023-02-15T04:47:23;157.17;;;70.63;;
16137;SDS011;8174;43.550;5.206;2023-02-15T04:49:50;161.03;;;72.50;;
16137;SDS011;8174;43.550;5.206;2023-02-15T04:52:18;152.83;;;69.73;;
16137;SDS011;8174;43.550;5.206;2023-02-15T04:54:46;153.73;;;70.17;;
16137;SDS011;8174;43.550;5.206;2023-02-15T04:57:14;164.53;;;70.00;;
16137;SDS011;8174;43.550;5.206;2023-02-15T04:59:41;151.93;;;69.57;;
16137;SDS011;8174;43.550;5.206;2023-02-15T05:02:09;154.10;;;71.57;;
16137;SDS011;8174;43.550;5.206;2023-02-15T05:04:36;149.03;;;68.97;;
16137;SDS011;8174;43.550;5.206;2023-02-15T05:07:04;154.40;;;68.73;;
16137;SDS011;8174;43.550;5.206;2023-02-15T05:09:31;149.67;;;69.97;;
16137;SDS011;8174;43.550;5.206;2023-02-15T05:12:00;150.43;;;69.27;;
16137;SDS011;8174;43.550;5.206;2023-02-15T05:14:27;145.60;;;68.43;;
16137;SDS011;8174;43.550;5.206;2023-02-15T05:16:54;153.80;;;66.97;;
16137;SDS011;8174;43.550;5.206;2023-02-15T05:19:26;137.97;;;64.93;;
16137;SDS011;8174;43.550;5.206;2023-02-15T05:21:54;153.17;;;65.57;;
16137;SDS011;8174;43.550;5.206;2023-02-15T05:24:21;163.07;;;65.47;;
16137;SDS011;8174;43.550;5.206;2023-02-15T05:27:07;156.17;;;63.07;;
16137;SDS011;8174;43.550;5.206;2023-02-15T05:29:52;153.93;;;63.63;;
16137;SDS011;8174;43.550;5.206;2023-02-15T05:32:20;161.13;;;63.90;;
16137;SDS011;8174;43.550;5.206;2023-02-15T05:34:47;154.47;;;64.93;;
16137;SDS011;8174;43.550;5.206;2023-02-15T05:37:14;152.57;;;64.27;;
16137;SDS011;8174;43.550;5.206;2023-02-15T05:39:42;163.13;;;66.03;;
16137;SDS011;8174;43.550;5.206;2023-02-15T05:42:10;151.17;;;62.47;;
16137;SDS011;8174;43.550;5.206;2023-02-15T05:44:38;167.73;;;66.37;;
16137;SDS011;8174;43.550;5.206;2023-02-15T05:47:05;154.77;;;63.47;;
16137;SDS011;8174;43.550;5.206;2023-02-15T05:49:33;153.67;;;62.70;;
16137;SDS011;8174;43.550;5.206;2023-02-15T05:52:01;152.13;;;59.93;;
16137;SDS011;8174;43.550;5.206;2023-02-15T05:54:28;158.20;;;62.17;;
16137;SDS011;8174;43.550;5.206;2023-02-15T05:56:56;152.10;;;60.43;;
16137;SDS011;8174;43.550;5.206;2023-02-15T05:59:24;152.13;;;60.30;;
16137;SDS011;8174;43.550;5.206;2023-02-15T06:01:52;143.60;;;54.17;;
16137;SDS011;8174;43.550;5.206;2023-02-15T06:04:19;141.73;;;51.67;;
16137;SDS011;8174;43.550;5.206;2023-02-15T06:06:46;142.13;;;50.60;;
16137;SDS011;8174;43.550;5.206;2023-02-15T06:09:14;135.03;;;51.77;;
16137;SDS011;8174;43.550;5.206;2023-02-15T06:11:43;142.77;;;52.73;;
16137;SDS011;8174;43.550;5.206;2023-02-15T06:14:10;143.20;;;51.40;;
16137;SDS011;8174;43.550;5.206;2023-02-15T06:16:39;130.93;;;52.23;;
16137;SDS011;8174;43.550;5.206;2023-02-15T06:19:06;137.27;;;49.93;;
16137;SDS011;8174;43.550;5.206;2023-02-15T06:21:34;125.30;;;48.37;;
16137;SDS011;8174;43.550;5.206;2023-02-15T06:24:01;128.30;;;49.93;;
16137;SDS011;8174;43.550;5.206;2023-02-15T06:26:28;119.17;;;47.77;;
16137;SDS011;8174;43.550;5.206;2023-02-15T06:28:55;116.50;;;45.80;;
16137;SDS011;8174;43.550;5.206;2023-02-15T06:31:23;128.43;;;45.17;;
16137;SDS011;8174;43.550;5.206;2023-02-15T06:33:52;117.03;;;42.90;;
16137;SDS011;8174;43.550;5.206;2023-02-15T06:36:25;107.20;;;42.27;;
16137;SDS011;8174;43.550;5.206;2023-02-15T06:38:53;113.63;;;43.67;;
16137;SDS011;8174;43.550;5.206;2023-02-15T06:41:21;108.67;;;42.27;;
16137;SDS011;8174;43.550;5.206;2023-02-15T06:43:48;116.30;;;44.50;;
16137;SDS011;8174;43.550;5.206;2023-02-15T06:46:15;113.27;;;43.90;;
16137;SDS011;8174;43.550;5.206;2023-02-15T06:48:43;113.80;;;44.20;;
16137;SDS011;8174;43.550;5.206;2023-02-15T06:51:12;116.83;;;45.53;;
16137;SDS011;8174;43.550;5.206;2023-02-15T06:53:39;118.30;;;46.37;;
16137;SDS011;8174;43.550;5.206;2023-02-15T06:56:08;116.83;;;45.10;;
16137;SDS011;8174;43.550;5.206;2023-02-15T06:58:36;117.67;;;44.53;;
16137;SDS011;8174;43.550;5.206;2023-02-15T07:01:03;109.83;;;43.37;;
16137;SDS011;8174;43.550;5.206;2023-02-15T07:03:31;118.37;;;44.57;;
16137;SDS011;8174;43.550;5.206;2023-02-15T07:05:59;111.97;;;44.07;;
16137;SDS011;8174;43.550;5.206;2023-02-15T07:08:28;106.60;;;42.33;;
16137;SDS011;8174;43.550;5.206;2023-02-15T07:10:56;112.03;;;44.57;;
16137;SDS011;8174;43.550;5.206;2023-02-15T07:13:43;104.70;;;43.10;;
16137;SDS011;8174;43.550;5.206;2023-02-15T07:16:10;107.53;;;43.40;;
16137;SDS011;8174;43.550;5.206;2023-02-15T07:18:37;104.63;;;41.53;;
16137;SDS011;8174;43.550;5.206;2023-02-15T07:21:05;103.67;;;41.87;;
16137;SDS011;8174;43.550;5.206;2023-02-15T07:23:35;102.03;;;41.07;;
16137;SDS011;8174;43.550;5.206;2023-02-15T07:26:03;96.40;;;41.87;;
16137;SDS011;8174;43.550;5.206;2023-02-15T07:28:31;99.50;;;41.30;;
16137;SDS011;8174;43.550;5.206;2023-02-15T07:31:00;96.07;;;39.77;;
16137;SDS011;8174;43.550;5.206;2023-02-15T07:33:27;101.13;;;38.70;;
16137;SDS011;8174;43.550;5.206;2023-02-15T07:35:55;98.07;;;41.67;;
16137;SDS011;8174;43.550;5.206;2023-02-15T07:38:23;106.53;;;41.30;;
16137;SDS011;8174;43.550;5.206;2023-02-15T07:40:56;104.80;;;42.27;;
16137;SDS011;8174;43.550;5.206;2023-02-15T07:43:24;95.93;;;38.50;;
16137;SDS011;8174;43.550;5.206;2023-02-15T07:45:51;93.70;;;39.33;;
16137;SDS011;8174;43.550;5.206;2023-02-15T07:48:19;79.53;;;36.37;;
16137;SDS011;8174;43.550;5.206;2023-02-15T07:50:47;76.60;;;35.23;;
16137;SDS011;8174;43.550;5.206;2023-02-15T07:53:14;68.83;;;35.03;;
16137;SDS011;8174;43.550;5.206;2023-02-15T07:55:42;69.97;;;35.10;;
16137;SDS011;8174;43.550;5.206;2023-02-15T07:58:10;65.07;;;34.70;;
16137;SDS011;8174;43.550;5.206;2023-02-15T08:00:38;57.13;;;31.60;;
16137;SDS011;8174;43.550;5.206;2023-02-15T08:03:19;61.50;;;31.13;;
16137;SDS011;8174;43.550;5.206;2023-02-15T08:05:46;54.00;;;29.80;;
16137;SDS011;8174;43.550;5.206;2023-02-15T08:08:13;47.40;;;28.80;;
16137;SDS011;8174;43.550;5.206;2023-02-15T08:19:34;40.50;;;23.90;;
16137;SDS011;8174;43.550;5.206;2023-02-15T08:22:02;38.67;;;22.77;;
16137;SDS011;8174;43.550;5.206;2023-02-15T08:24:30;34.57;;;21.70;;
16137;SDS011;8174;43.550;5.206;2023-02-15T08:26:58;34.53;;;21.60;;
16137;SDS011;8174;43.550;5.206;2023-02-15T08:29:29;36.87;;;24.50;;
16137;SDS011;8174;43.550;5.206;2023-02-15T08:31:57;35.17;;;21.23;;
16137;SDS011;8174;43.550;5.206;2023-02-15T08:34:27;35.47;;;21.10;;
16137;SDS011;8174;43.550;5.206;2023-02-15T08:36:56;34.53;;;20.87;;
16137;SDS011;8174;43.550;5.206;2023-02-15T08:39:23;36.63;;;22.20;;
16137;SDS011;8174;43.550;5.206;2023-02-15T08:41:50;38.47;;;21.50;;
16137;SDS011;8174;43.550;5.206;2023-02-15T08:44:18;38.93;;;21.43;;
16137;SDS011;8174;43.550;5.206;2023-02-15T08:46:47;38.73;;;21.67;;
16137;SDS011;8174;43.550;5.206;2023-02-15T08:49:15;39.63;;;23.07;;
16137;SDS011;8174;43.550;5.206;2023-02-15T08:51:43;40.43;;;23.03;;
16137;SDS011;8174;43.550;5.206;2023-02-15T08:54:14;39.70;;;22.10;;
16137;SDS011;8174;43.550;5.206;2023-02-15T08:56:42;39.13;;;23.40;;
16137;SDS011;8174;43.550;5.206;2023-02-15T08:59:12;40.27;;;23.17;;
16137;SDS011;8174;43.550;5.206;2023-02-15T09:01:39;36.53;;;21.97;;
16137;SDS011;8174;43.550;5.206;2023-02-15T09:04:07;40.83;;;25.33;;
16137;SDS011;8174;43.550;5.206;2023-02-15T09:06:34;37.43;;;22.90;;
16137;SDS011;8174;43.550;5.206;2023-02-15T09:09:02;46.57;;;25.03;;
16137;SDS011;8174;43.550;5.206;2023-02-15T09:11:33;37.00;;;22.33;;
16137;SDS011;8174;43.550;5.206;2023-02-15T09:14:01;43.30;;;24.50;;
16137;SDS011;8174;43.550;5.206;2023-02-15T09:16:30;41.57;;;24.13;;
16137;SDS011;8174;43.550;5.206;2023-02-15T09:18:58;44.87;;;24.40;;
16137;SDS011;8174;43.550;5.206;2023-02-15T09:21:26;50.10;;;26.00;;
16137;SDS011;8174;43.550;5.206;2023-02-15T09:23:55;40.87;;;24.23;;
16137;SDS011;8174;43.550;5.206;2023-02-15T09:26:24;42.50;;;25.07;;
16137;SDS011;8174;43.550;5.206;2023-02-15T09:28:55;42.63;;;25.57;;
16137;SDS011;8174;43.550;5.206;2023-02-15T09:31:23;43.47;;;25.60;;
16137;SDS011;8174;43.550;5.206;2023-02-15T09:33:50;48.67;;;29.17;;
16137;SDS011;8174;43.550;5.206;2023-02-15T09:36:18;48.07;;;28.27;;
16137;SDS011;8174;43.550;5.206;2023-02-15T09:38:46;46.27;;;27.13;;
16137;SDS011;8174;43.550;5.206;2023-02-15T09:41:19;50.77;;;29.13;;
16137;SDS011;8174;43.550;5.206;2023-02-15T09:43:50;45.10;;;26.27;;
16137;SDS011;8174;43.550;5.206;2023-02-15T09:46:29;44.10;;;26.37;;
16137;SDS011;8174;43.550;5.206;2023-02-15T09:49:02;42.50;;;26.57;;
16137;SDS011;8174;43.550;5.206;2023-02-15T09:51:38;43.57;;;25.80;;
16137;SDS011;8174;43.550;5.206;2023-02-15T09:54:14;37.27;;;24.17;;
16137;SDS011;8174;43.550;5.206;2023-02-15T09:56:44;45.93;;;26.27;;
16137;SDS011;8174;43.550;5.206;2023-02-15T09:59:15;35.13;;;23.50;;
16137;SDS011;8174;43.550;5.206;2023-02-15T10:01:50;36.37;;;23.60;;
16137;SDS011;8174;43.550;5.206;2023-02-15T10:04:22;32.67;;;21.53;;
16137;SDS011;8174;43.550;5.206;2023-02-15T10:06:55;33.63;;;21.57;;
16137;SDS011;8174;43.550;5.206;2023-02-15T10:09:30;36.93;;;21.90;;
16137;SDS011;8174;43.550;5.206;2023-02-15T10:12:08;37.53;;;22.90;;
16137;SDS011;8174;43.550;5.206;2023-02-15T10:17:29;32.23;;;20.87;;
16137;SDS011;8174;43.550;5.206;2023-02-15T10:20:01;31.53;;;20.70;;
16137;SDS011;8174;43.550;5.206;2023-02-15T10:22:34;38.10;;;24.67;;
16137;SDS011;8174;43.550;5.206;2023-02-15T10:25:12;29.43;;;19.40;;
16137;SDS011;8174;43.550;5.206;2023-02-15T10:27:44;26.03;;;18.83;;
16137;SDS011;8174;43.550;5.206;2023-02-15T10:30:12;23.13;;;15.77;;
16137;SDS011;8174;43.550;5.206;2023-02-15T10:32:42;26.23;;;16.70;;
16137;SDS011;8174;43.550;5.206;2023-02-15T10:35:15;24.10;;;16.87;;
16137;SDS011;8174;43.550;5.206;2023-02-15T10:37:49;21.27;;;15.47;;
16137;SDS011;8174;43.550;5.206;2023-02-15T10:40:22;19.13;;;14.17;;
16137;SDS011;8174;43.550;5.206;2023-02-15T10:43:03;13.23;;;9.77;;
16137;SDS011;8174;43.550;5.206;2023-02-15T10:45:36;10.07;;;7.33;;
16137;SDS011;8174;43.550;5.206;2023-02-15T10:48:19;9.93;;;7.37;;
16137;SDS011;8174;43.550;5.206;2023-02-15T10:50:49;12.50;;;10.23;;
16137;SDS011;8174;43.550;5.206;2023-02-15T10:53:24;14.57;;;10.90;;
16137;SDS011;8174;43.550;5.206;2023-02-15T10:55:55;12.57;;;9.93;;
16137;SDS011;8174;43.550;5.206;2023-02-15T10:58:26;16.27;;;11.00;;
16137;SDS011;8174;43.550;5.206;2023-02-15T11:00:57;8.77;;;7.47;;
16137;SDS011;8174;43.550;5.206;2023-02-15T11:03:36;13.37;;;9.10;;
16137;SDS011;8174;43.550;5.206;2023-02-15T11:06:08;12.00;;;10.03;;
16137;SDS011;8174;43.550;5.206;2023-02-15T11:08:39;17.37;;;11.57;;
16137;SDS011;8174;43.550;5.206;2023-02-15T11:11:08;14.80;;;11.03;;
16137;SDS011;8174;43.550;5.206;2023-02-15T11:13:37;16.23;;;11.83;;
16137;SDS011;8174;43.550;5.206;2023-02-15T11:16:06;15.73;;;9.03;;
16137;SDS011;8174;43.550;5.206;2023-02-15T11:18:37;15.27;;;10.20;;
16137;SDS011;8174;43.550;5.206;2023-02-15T11:21:07;13.97;;;10.40;;
16137;SDS011;8174;43.550;5.206;2023-02-15T11:23:36;13.00;;;9.63;;
16137;SDS011;8174;43.550;5.206;2023-02-15T11:26:08;13.03;;;8.97;;
16137;SDS011;8174;43.550;5.206;2023-02-15T11:28:38;17.00;;;9.60;;
16137;SDS011;8174;43.550;5.206;2023-02-15T11:31:11;14.60;;;10.97;;
16137;SDS011;8174;43.550;5.206;2023-02-15T11:33:42;25.57;;;17.90;;
16137;SDS011;8174;43.550;5.206;2023-02-15T11:36:12;13.83;;;9.43;;
16137;SDS011;8174;43.550;5.206;2023-02-15T11:38:42;12.63;;;8.90;;
16137;SDS011;8174;43.550;5.206;2023-02-15T11:41:10;11.50;;;9.70;;
16137;SDS011;8174;43.550;5.206;2023-02-15T11:43:39;10.90;;;8.70;;
16137;SDS011;8174;43.550;5.206;2023-02-15T11:46:07;11.00;;;8.80;;
16137;SDS011;8174;43.550;5.206;2023-02-15T11:48:35;8.17;;;7.03;;
16137;SDS011;8174;43.550;5.206;2023-02-15T11:51:04;10.20;;;7.70;;
16137;SDS011;8174;43.550;5.206;2023-02-15T11:53:33;9.63;;;8.20;;
16137;SDS011;8174;43.550;5.206;2023-02-15T11:56:03;9.27;;;7.80;;
16137;SDS011;8174;43.550;5.206;2023-02-15T11:58:32;10.03;;;7.90;;
16137;SDS011;8174;43.550;5.206;2023-02-15T12:01:02;10.43;;;8.60;;
16137;SDS011;8174;43.550;5.206;2023-02-15T12:03:34;10.37;;;8.80;;
16137;SDS011;8174;43.550;5.206;2023-02-15T12:06:11;11.33;;;7.63;;
16137;SDS011;8174;43.550;5.206;2023-02-15T12:08:42;11.83;;;8.00;;
16137;SDS011;8174;43.550;5.206;2023-02-15T12:11:11;11.60;;;8.63;;
16137;SDS011;8174;43.550;5.206;2023-02-15T12:13:55;12.33;;;9.10;;
16137;SDS011;8174;43.550;5.206;2023-02-15T12:16:27;10.00;;;8.13;;
16137;SDS011;8174;43.550;5.206;2023-02-15T12:18:56;11.43;;;8.23;;
16137;SDS011;8174;43.550;5.206;2023-02-15T12:21:26;10.00;;;8.00;;
16137;SDS011;8174;43.550;5.206;2023-02-15T12:23:56;10.67;;;8.17;;
16137;SDS011;8174;43.550;5.206;2023-02-15T12:26:24;10.30;;;8.13;;
16137;SDS011;8174;43.550;5.206;2023-02-15T12:28:52;15.20;;;9.67;;
16137;SDS011;8174;43.550;5.206;2023-02-15T12:31:24;12.43;;;7.40;;
16137;SDS011;8174;43.550;5.206;2023-02-15T12:33:53;10.93;;;8.00;;
16137;SDS011;8174;43.550;5.206;2023-02-15T12:36:23;12.80;;;8.43;;
16137;SDS011;8174;43.550;5.206;2023-02-15T12:39:04;11.17;;;7.50;;
16137;SDS011;8174;43.550;5.206;2023-02-15T12:41:32;10.20;;;7.50;;
16137;SDS011;8174;43.550;5.206;2023-02-15T12:44:04;13.47;;;8.30;;
16137;SDS011;8174;43.550;5.206;2023-02-15T12:46:32;14.30;;;8.47;;
16137;SDS011;8174;43.550;5.206;2023-02-15T12:49:07;11.17;;;8.73;;
16137;SDS011;8174;43.550;5.206;2023-02-15T12:51:44;9.53;;;8.07;;
16137;SDS011;8174;43.550;5.206;2023-02-15T12:54:27;13.23;;;7.70;;
16137;SDS011;8174;43.550;5.206;2023-02-15T12:56:56;9.93;;;7.83;;
16137;SDS011;8174;43.550;5.206;2023-02-15T12:59:23;11.93;;;8.17;;
16137;SDS011;8174;43.550;5.206;2023-02-15T13:01:51;15.17;;;9.93;;
16137;SDS011;8174;43.550;5.206;2023-02-15T13:04:21;12.50;;;10.07;;
16137;SDS011;8174;43.550;5.206;2023-02-15T13:06:50;16.00;;;10.47;;
16137;SDS011;8174;43.550;5.206;2023-02-15T13:09:20;16.27;;;10.60;;
16137;SDS011;8174;43.550;5.206;2023-02-15T13:11:49;14.03;;;10.07;;
16137;SDS011;8174;43.550;5.206;2023-02-15T13:14:17;14.70;;;11.43;;
16137;SDS011;8174;43.550;5.206;2023-02-15T13:16:45;15.10;;;10.40;;
16137;SDS011;8174;43.550;5.206;2023-02-15T13:19:14;15.87;;;11.27;;
16137;SDS011;8174;43.550;5.206;2023-02-15T13:21:43;9.70;;;8.43;;
16137;SDS011;8174;43.550;5.206;2023-02-15T13:24:15;10.47;;;9.13;;
16137;SDS011;8174;43.550;5.206;2023-02-15T13:26:44;14.17;;;8.83;;
16137;SDS011;8174;43.550;5.206;2023-02-15T13:29:15;12.30;;;8.30;;
16137;SDS011;8174;43.550;5.206;2023-02-15T13:31:44;11.47;;;8.03;;
16137;SDS011;8174;43.550;5.206;2023-02-15T13:34:14;21.33;;;11.37;;
16137;SDS011;8174;43.550;5.206;2023-02-15T13:36:46;15.50;;;10.40;;
16137;SDS011;8174;43.550;5.206;2023-02-15T13:39:19;14.30;;;10.77;;
16137;SDS011;8174;43.550;5.206;2023-02-15T13:41:50;13.53;;;8.53;;
16137;SDS011;8174;43.550;5.206;2023-02-15T13:44:21;15.07;;;10.30;;
16137;SDS011;8174;43.550;5.206;2023-02-15T13:46:56;13.10;;;10.00;;
16137;SDS011;8174;43.550;5.206;2023-02-15T13:49:36;12.53;;;8.00;;
16137;SDS011;8174;43.550;5.206;2023-02-15T13:52:08;11.67;;;8.80;;
16137;SDS011;8174;43.550;5.206;2023-02-15T13:54:48;10.53;;;7.57;;
16137;SDS011;8174;43.550;5.206;2023-02-15T13:57:27;9.67;;;7.27;;
16137;SDS011;8174;43.550;5.206;2023-02-15T14:00:04;9.83;;;8.10;;
16137;SDS011;8174;43.550;5.206;2023-02-15T14:05:27;12.70;;;8.87;;
16137;SDS011;8174;43.550;5.206;2023-02-15T14:07:57;12.07;;;8.00;;
16137;SDS011;8174;43.550;5.206;2023-02-15T14:10:34;11.30;;;7.77;;
16137;SDS011;8174;43.550;5.206;2023-02-15T14:13:14;11.23;;;7.50;;
16137;SDS011;8174;43.550;5.206;2023-02-15T14:15:45;14.07;;;8.33;;
16137;SDS011;8174;43.550;5.206;2023-02-15T14:18:17;10.17;;;7.27;;
16137;SDS011;8174;43.550;5.206;2023-02-15T14:20:50;11.47;;;8.53;;
16137;SDS011;8174;43.550;5.206;2023-02-15T14:23:22;12.23;;;7.60;;
16137;SDS011;8174;43.550;5.206;2023-02-15T14:25:55;12.67;;;8.87;;
16137;SDS011;8174;43.550;5.206;2023-02-15T14:28:25;10.63;;;7.90;;
16137;SDS011;8174;43.550;5.206;2023-02-15T14:30:56;11.27;;;7.50;;
16137;SDS011;8174;43.550;5.206;2023-02-15T14:33:31;12.57;;;7.67;;
16137;SDS011;8174;43.550;5.206;2023-02-15T14:36:00;14.13;;;9.30;;
16137;SDS011;8174;43.550;5.206;2023-02-15T14:38:33;12.70;;;8.77;;
16137;SDS011;8174;43.550;5.206;2023-02-15T14:41:04;13.83;;;8.17;;
16137;SDS011;8174;43.550;5.206;2023-02-15T14:43:45;13.33;;;7.87;;
16137;SDS011;8174;43.550;5.206;2023-02-15T14:46:19;12.43;;;7.70;;
16137;SDS011;8174;43.550;5.206;2023-02-15T14:48:48;12.17;;;7.53;;
16137;SDS011;8174;43.550;5.206;2023-02-15T14:54:02;18.03;;;8.23;;
16137;SDS011;8174;43.550;5.206;2023-02-15T14:56:29;12.33;;;8.27;;
16137;SDS011;8174;43.550;5.206;2023-02-15T15:01:40;15.20;;;10.37;;
16137;SDS011;8174;43.550;5.206;2023-02-15T15:04:09;18.00;;;10.97;;
16137;SDS011;8174;43.550;5.206;2023-02-15T15:06:39;15.03;;;9.07;;
16137;SDS011;8174;43.550;5.206;2023-02-15T15:09:11;11.90;;;9.07;;
16137;SDS011;8174;43.550;5.206;2023-02-15T15:11:41;14.50;;;9.53;;
16137;SDS011;8174;43.550;5.206;2023-02-15T15:14:09;14.10;;;9.80;;